Hessdale, Pennsylvania
Current Conditions -  °F | °C
As of 7:53 PM on Saturday 22 Nov 2014 (Local Time) from KLNS Reporting Station
Broken Clouds Broken Clouds  
Wind Chill: 35°   Ceiling: 11000
Heat Index: 35°   Visibility: 10mi
Dew Point: 22°   Wind: 0mph
Humidity: 59%   Direction: NA
Pressure: 30.26"   Gusts: NA
Location:  39.96°N, 76.1809°W
Report Text: KLNS 230053Z AUTO 00000KT 10SM FEW065 BKN110 02/M06 A3026 RMK AO2 SLP252 T00171056
Loading
Personal Weather Stations






























Interactive Weather Map New forecast layout! Learn more

10-Day Weather Forecast

Advertisements
Track Severe Weather on mobile